createdAt,value
2018-04-23T00:00:07.894Z,100720.25
2018-04-23T00:02:36.232Z,100721.54
2018-04-23T00:05:04.644Z,100725.37
2018-04-23T00:07:32.970Z,100717.27
2018-04-23T00:10:02.099Z,100712.22
2018-04-23T00:12:30.993Z,100725.11
2018-04-23T00:14:59.335Z,100721.89
2018-04-23T00:17:27.841Z,100713.03
2018-04-23T00:19:56.313Z,100705.58
2018-04-23T00:22:25.426Z,100705.62
2018-04-23T00:24:53.816Z,100707.67
2018-04-23T00:27:22.474Z,100704.89
2018-04-23T00:29:51.120Z,100690.05
2018-04-23T00:32:19.434Z,100688.41
2018-04-23T00:34:48.084Z,100695.48
2018-04-23T00:37:17.229Z,100683.52
2018-04-23T00:39:46.180Z,100685.13
2018-04-23T00:42:14.550Z,100686.84
2018-04-23T00:47:17.758Z,100667.30
2018-04-23T00:49:46.081Z,100671.19
2018-04-23T00:52:14.376Z,100673.69
2018-04-23T00:54:42.728Z,100668.64
2018-04-23T00:57:11.815Z,100671.32
2018-04-23T00:59:40.444Z,100670.39
2018-04-23T01:02:08.824Z,100669.19
2018-04-23T01:04:37.166Z,100675.80
2018-04-23T01:07:05.479Z,100674.39
2018-04-23T01:09:34.115Z,100669.66
2018-04-23T01:12:03.252Z,100669.89
2018-04-23T01:14:31.562Z,100681.24
2018-04-23T01:17:00.676Z,100673.17
2018-04-23T01:19:28.983Z,100668.53
2018-04-23T01:21:58.291Z,100666.22
2018-04-23T01:24:26.668Z,100668.17
2018-04-23T01:26:54.968Z,100673.34
2018-04-23T01:29:23.270Z,100670.02
2018-04-23T01:31:51.884Z,100674.60
2018-04-23T01:34:20.210Z,100671.64
2018-04-23T01:36:48.521Z,100673.72
2018-04-23T01:39:16.933Z,100665.88
2018-04-23T01:41:45.314Z,100657.98
2018-04-23T01:44:14.472Z,100656.34
2018-04-23T01:46:42.803Z,100663.77
2018-04-23T01:49:11.971Z,100667.45
2018-04-23T01:51:40.351Z,100674.55
2018-04-23T01:54:09.038Z,100670.65
2018-04-23T01:56:37.520Z,100664.89
2018-04-23T01:59:05.922Z,100677.06
2018-04-23T02:01:35.142Z,100677.72
2018-04-23T02:04:04.302Z,100677.64
2018-04-23T02:06:32.722Z,100677.48
2018-04-23T02:09:01.125Z,100674.65
2018-04-23T02:11:29.444Z,100662.95
2018-04-23T02:13:57.917Z,100673.75
2018-04-23T02:16:26.896Z,100674.65
2018-04-23T02:18:55.351Z,100675.83
2018-04-23T02:21:23.771Z,100674.50
2018-04-23T02:23:52.457Z,100684.02
2018-04-23T02:26:20.943Z,100687.33
2018-04-23T02:28:49.491Z,100681.22
2018-04-23T02:31:17.928Z,100680.80
2018-04-23T02:33:47.184Z,100683.73
2018-04-23T02:36:15.595Z,100680.36
2018-04-23T02:38:44.380Z,100691.55
2018-04-23T02:41:12.860Z,100697.13
2018-04-23T02:43:41.310Z,100696.84
2018-04-23T02:46:09.800Z,100697.78
2018-04-23T02:48:38.310Z,100693.77
2018-04-23T02:51:07.436Z,100694.17
2018-04-23T02:53:35.882Z,100690.36
2018-04-23T02:56:04.199Z,100690.51
2018-04-23T02:58:32.539Z,100686.39
2018-04-23T03:01:01.453Z,100691.44
2018-04-23T03:03:30.628Z,100689.77
2018-04-23T03:05:59.114Z,100684.64
2018-04-23T03:08:27.507Z,100688.44
2018-04-23T03:10:56.689Z,100681.37
2018-04-23T03:13:25.952Z,100681.27
2018-04-23T03:15:54.280Z,100676.53
2018-04-23T03:18:22.592Z,100682.09
2018-04-23T03:20:50.964Z,100670.56
2018-04-23T03:23:19.454Z,100676.45
2018-04-23T03:25:47.765Z,100682.47
2018-04-23T03:28:16.087Z,100680.55
2018-04-23T03:30:44.464Z,100684.10
2018-04-23T03:33:13.536Z,100678.73
2018-04-23T03:35:41.834Z,100677.01
2018-04-23T03:38:10.925Z,100670.05
2018-04-23T03:40:39.236Z,100674.48
2018-04-23T03:43:07.535Z,100672.79
2018-04-23T03:45:36.250Z,100675.03
2018-04-23T03:48:04.551Z,100673.86
2018-04-23T03:50:32.885Z,100669.42
2018-04-23T03:53:01.225Z,100666.45
2018-04-23T03:55:30.315Z,100677.67
2018-04-23T03:57:59.411Z,100679.38
2018-04-23T04:00:28.726Z,100683.09
2018-04-23T04:02:57.049Z,100671.59
2018-04-23T04:05:25.347Z,100676.73
2018-04-23T04:07:54.063Z,100671.66
2018-04-23T04:10:23.129Z,100674.17
2018-04-23T04:13:09.108Z,100680.95
2018-04-23T04:15:54.916Z,100687.88
2018-04-23T04:18:41.739Z,100691.73
2018-04-23T04:21:10.807Z,100684.99
2018-04-23T04:23:39.126Z,100685.08
2018-04-23T04:26:07.752Z,100693.38
2018-04-23T04:28:37.709Z,100689.86
2018-04-23T04:31:06.808Z,100685.11
2018-04-23T04:33:35.931Z,100686.30
2018-04-23T04:36:04.392Z,100690.70
2018-04-23T04:38:33.481Z,100692.38
2018-04-23T04:41:02.587Z,100699.16
2018-04-23T04:43:31.664Z,100691.76
2018-04-23T04:46:00.001Z,100693.66
2018-04-23T04:48:28.583Z,100697.98
2018-04-23T04:50:56.921Z,100701.78
2018-04-23T04:53:26.047Z,100708.55
2018-04-23T04:55:54.413Z,100707.03
2018-04-23T04:58:22.746Z,100701.61
2018-04-23T05:00:51.382Z,100702.10
2018-04-23T05:03:19.747Z,100697.83
2018-04-23T05:05:48.055Z,100699.67
2018-04-23T05:08:16.361Z,100706.20
2018-04-23T05:10:44.927Z,100699.61
2018-04-23T05:13:13.250Z,100703.72
2018-04-23T05:15:42.385Z,100702.92
2018-04-23T05:18:10.751Z,100698.67
2018-04-23T05:20:39.056Z,100701.86
2018-04-23T05:23:07.395Z,100707.80
2018-04-23T05:25:36.512Z,100713.88
2018-04-23T05:28:04.959Z,100710.08
2018-04-23T05:30:33.302Z,100704.81
2018-04-23T05:33:02.824Z,100713.14
2018-04-23T05:35:31.164Z,100709.41
2018-04-23T05:37:59.497Z,100710.22
2018-04-23T05:40:27.851Z,100716.94
2018-04-23T05:42:56.156Z,100717.06
2018-04-23T05:45:24.456Z,100712.42
2018-04-23T05:47:52.835Z,100711.48
2018-04-23T05:50:21.899Z,100721.45
2018-04-23T05:52:50.196Z,100732.95
2018-04-23T05:55:19.519Z,100732.34
2018-04-23T05:57:47.852Z,100714.05
2018-04-23T06:00:16.238Z,100718.72
2018-04-23T06:02:45.519Z,100716.74
2018-04-23T06:05:13.824Z,100719.94
2018-04-23T06:07:42.173Z,100725.86
2018-04-23T06:10:10.539Z,100719.82
2018-04-23T06:12:38.857Z,100722.02
2018-04-23T06:15:07.199Z,100723.67
2018-04-23T06:17:36.680Z,100722.16
2018-04-23T06:20:05.006Z,100714.11
2018-04-23T06:22:33.332Z,100711.16
2018-04-23T06:25:01.704Z,100720.41
2018-04-23T06:27:30.041Z,100720.06
2018-04-23T06:29:58.374Z,100719.84
2018-04-23T06:32:26.723Z,100731.38
2018-04-23T06:34:55.867Z,100735.52
2018-04-23T06:37:24.263Z,100750.42
2018-04-23T06:39:52.656Z,100749.43
2018-04-23T06:42:20.984Z,100745.80
2018-04-23T06:44:49.308Z,100751.11
2018-04-23T06:47:17.682Z,100759.78
2018-04-23T06:49:46.055Z,100764.55
2018-04-23T06:52:14.376Z,100780.93
2018-04-23T06:54:43.501Z,100781.03
2018-04-23T06:57:11.852Z,100778.84
2018-04-23T06:59:40.163Z,100784.63
2018-04-23T07:02:08.885Z,100789.39
2018-04-23T07:04:37.748Z,100797.22
2018-04-23T07:07:06.057Z,100795.11
2018-04-23T07:09:34.432Z,100792.92
2018-04-23T07:12:02.780Z,100785.75
2018-04-23T07:14:31.087Z,100791.95
2018-04-23T07:16:59.404Z,100799.23
2018-04-23T07:19:28.504Z,100805.61
2018-04-23T07:21:57.581Z,100806.20
2018-04-23T07:24:26.148Z,100808.61
2018-04-23T07:26:54.456Z,100803.80
2018-04-23T07:29:23.591Z,100809.06
2018-04-23T07:31:51.912Z,100813.42
2018-04-23T07:34:20.248Z,100814.69
2018-04-23T07:36:48.560Z,100818.34
2018-04-23T07:39:16.935Z,100822.02
2018-04-23T07:41:45.248Z,100832.12
2018-04-23T07:44:14.020Z,100829.45
2018-04-23T07:46:42.704Z,100828.81
2018-04-23T07:49:11.037Z,100832.98
2018-04-23T07:51:39.382Z,100832.53
2018-04-23T07:54:08.546Z,100842.02
2018-04-23T07:56:36.845Z,100841.34
2018-04-23T07:59:05.185Z,100834.48
2018-04-23T08:01:33.545Z,100836.59
2018-04-23T08:04:02.716Z,100840.53
2018-04-23T08:06:31.794Z,100847.31
2018-04-23T08:09:00.491Z,100849.99
2018-04-23T08:11:29.588Z,100852.12
2018-04-23T08:13:57.916Z,100847.30
2018-04-23T08:16:26.270Z,100864.69
2018-04-23T08:18:54.616Z,100865.51
2018-04-23T08:21:22.954Z,100865.28
2018-04-23T08:23:51.311Z,100865.48
2018-04-23T08:26:19.650Z,100868.17
2018-04-23T08:28:48.011Z,100870.80
2018-04-23T08:31:16.589Z,100873.50
2018-04-23T08:33:44.928Z,100874.77
2018-04-23T08:36:13.259Z,100871.83
2018-04-23T08:38:41.601Z,100874.22
2018-04-23T08:41:09.928Z,100874.53
2018-04-23T08:43:38.263Z,100875.66
2018-04-23T08:46:06.652Z,100863.48
2018-04-23T08:48:34.980Z,100865.88
2018-04-23T08:51:03.309Z,100864.52
2018-04-23T08:53:31.950Z,100868.80
2018-04-23T08:56:00.287Z,100872.22
2018-04-23T08:58:28.632Z,100874.72
2018-04-23T09:00:56.989Z,100869.07
2018-04-23T09:03:26.114Z,100880.70
2018-04-23T09:05:54.455Z,100887.83
2018-04-23T09:08:23.597Z,100887.78
2018-04-23T09:10:51.966Z,100897.68
2018-04-23T09:13:20.288Z,100899.64
2018-04-23T09:15:48.979Z,100900.99
2018-04-23T09:18:18.104Z,100901.81
2018-04-23T09:20:46.447Z,100899.30
2018-04-23T09:23:14.811Z,100897.52
2018-04-23T09:25:43.132Z,100908.31
2018-04-23T09:28:12.209Z,100893.46
2018-04-23T09:30:40.567Z,100896.79
2018-04-23T09:33:08.901Z,100897.80
2018-04-23T09:35:37.208Z,100913.01
2018-04-23T09:38:05.715Z,100916.26
2018-04-23T09:40:34.160Z,100915.32
2018-04-23T09:43:02.491Z,100916.45
2018-04-23T09:45:31.628Z,100914.41
2018-04-23T09:47:59.947Z,100921.15
2018-04-23T09:50:28.271Z,100925.74
2018-04-23T09:52:56.642Z,100924.83
2018-04-23T09:55:25.711Z,100925.02
2018-04-23T09:57:54.048Z,100939.17
2018-04-23T10:00:28.345Z,100932.64
2018-04-23T10:02:57.480Z,100935.13
2018-04-23T10:05:25.800Z,100941.31
2018-04-23T10:07:54.998Z,100923.66
2018-04-23T10:10:23.342Z,100930.27
2018-04-23T10:12:52.420Z,100937.59
2018-04-23T10:15:20.777Z,100944.02
2018-04-23T10:17:49.108Z,100950.89
2018-04-23T10:20:17.436Z,100947.45
2018-04-23T10:22:46.083Z,100955.20
2018-04-23T10:25:14.422Z,100957.72
2018-04-23T10:27:42.836Z,100965.20
2018-04-23T10:30:11.210Z,100968.48
2018-04-23T10:32:39.551Z,100977.27
2018-04-23T10:35:07.889Z,100992.19
2018-04-23T10:37:36.312Z,100977.73
2018-04-23T10:40:04.638Z,100970.92
2018-04-23T10:42:33.013Z,100970.19
2018-04-23T10:45:01.624Z,100980.16
2018-04-23T10:47:29.935Z,100982.56
2018-04-23T10:49:58.246Z,100968.25
2018-04-23T10:52:26.607Z,100971.95
2018-04-23T10:54:54.908Z,100974.85
2018-04-23T10:57:23.243Z,100979.43
2018-04-23T10:59:51.600Z,100977.83
2018-04-23T11:02:20.677Z,100982.39
2018-04-23T11:04:49.006Z,100986.52
2018-04-23T11:07:18.160Z,100984.84
2018-04-23T11:09:46.473Z,100991.22
2018-04-23T11:12:14.768Z,100992.77
2018-04-23T11:14:43.143Z,100980.28
2018-04-23T11:17:11.478Z,100986.02
2018-04-23T11:19:39.804Z,100995.98
2018-04-23T11:22:08.166Z,100986.70
2018-04-23T11:24:36.513Z,100991.23
2018-04-23T11:27:05.855Z,100981.77
2018-04-23T11:29:34.402Z,100971.36
2018-04-23T11:32:03.508Z,100981.34
2018-04-23T11:34:31.813Z,100978.17
2018-04-23T11:37:00.149Z,100970.47
2018-04-23T11:39:28.472Z,100981.24
2018-04-23T11:41:56.794Z,100990.81
2018-04-23T11:44:25.133Z,101005.26
2018-04-23T11:46:53.458Z,101016.92
2018-04-23T11:49:21.773Z,101016.05
2018-04-23T11:51:50.412Z,101016.20
2018-04-23T11:54:18.706Z,101016.30
2018-04-23T11:56:47.068Z,101015.55
2018-04-23T11:59:15.449Z,101014.94
2018-04-23T12:01:43.739Z,101019.63
2018-04-23T12:04:12.840Z,101017.68
2018-04-23T12:06:41.981Z,101012.85
2018-04-23T12:09:10.405Z,101020.05
2018-04-23T12:11:38.731Z,101031.17
2018-04-23T12:14:07.583Z,101034.47
2018-04-23T12:16:35.917Z,101029.62
2018-04-23T12:19:04.233Z,101039.38
2018-04-23T12:21:33.423Z,101030.33
2018-04-23T12:24:01.715Z,101040.08
2018-04-23T12:26:30.082Z,101048.05
2018-04-23T12:28:58.442Z,101051.98
2018-04-23T12:31:26.783Z,101057.70
2018-04-23T12:33:55.128Z,101059.38
2018-04-23T12:36:24.708Z,101053.57
2018-04-23T12:38:53.034Z,101045.60
2018-04-23T12:41:21.361Z,101058.22
2018-04-23T12:43:49.701Z,101052.09
2018-04-23T12:46:18.062Z,101046.81
2018-04-23T12:48:46.341Z,101044.09
2018-04-23T12:51:14.698Z,101048.39
2018-04-23T12:53:43.000Z,101042.33
2018-04-23T12:56:12.091Z,101039.92
2018-04-23T12:58:41.502Z,101046.83
2018-04-23T13:01:09.815Z,101041.96
2018-04-23T13:03:38.142Z,101037.81
2018-04-23T13:06:07.266Z,101036.76
2018-04-23T13:08:35.584Z,101033.81
2018-04-23T13:11:03.912Z,101039.11
2018-04-23T13:13:32.278Z,101038.05
2018-04-23T13:16:01.396Z,101045.77
2018-04-23T13:18:30.037Z,101046.19
2018-04-23T13:20:58.532Z,101032.11
2018-04-23T13:23:26.844Z,101047.20
2018-04-23T13:25:55.220Z,101046.02
2018-04-23T13:28:23.563Z,101045.35
2018-04-23T13:30:51.894Z,101051.36
2018-04-23T13:33:20.199Z,101047.32
2018-04-23T13:35:48.536Z,101044.67
2018-04-23T13:38:16.987Z,101041.43
2018-04-23T13:40:45.296Z,101046.14
2018-04-23T13:43:14.024Z,101046.59
2018-04-23T13:45:42.440Z,101039.46
2018-04-23T13:48:10.716Z,101041.69
2018-04-23T13:50:39.839Z,101041.78
2018-04-23T13:53:08.249Z,101035.62
2018-04-23T13:55:36.592Z,101025.88
2018-04-23T13:58:04.954Z,101040.01
2018-04-23T14:00:34.151Z,101031.83
2018-04-23T14:03:02.489Z,101026.80
2018-04-23T14:05:31.315Z,101029.20
2018-04-23T14:08:00.411Z,101033.64
2018-04-23T14:10:29.481Z,101030.31
2018-04-23T14:12:57.901Z,101033.42
2018-04-23T14:15:26.999Z,101031.70
2018-04-23T14:17:56.064Z,101031.92
2018-04-23T14:20:24.398Z,101024.48
2018-04-23T14:22:52.843Z,101035.80
2018-04-23T14:25:21.941Z,101035.27
2018-04-23T14:27:51.218Z,101032.05
2018-04-23T14:30:19.529Z,101028.83
2018-04-23T14:32:47.859Z,101033.80
2018-04-23T14:35:16.239Z,101026.47
2018-04-23T14:37:44.583Z,101026.23
2018-04-23T14:40:12.904Z,101029.48
2018-04-23T14:42:41.263Z,101033.19
2018-04-23T14:45:09.578Z,101026.94
2018-04-23T14:47:37.888Z,101024.41
2018-04-23T14:50:06.883Z,101018.89
2018-04-23T14:52:35.199Z,101024.31
2018-04-23T14:55:03.507Z,101021.42
2018-04-23T14:57:31.846Z,101026.53
2018-04-23T15:00:00.149Z,101026.52
2018-04-23T15:02:28.454Z,101031.47
2018-04-23T15:04:57.555Z,101034.66
2018-04-23T15:07:26.095Z,101027.47
2018-04-23T15:09:54.430Z,101029.39
2018-04-23T15:12:23.388Z,101025.28
2018-04-23T15:14:51.964Z,101017.25
2018-04-23T15:17:20.280Z,101022.08
2018-04-23T15:19:48.684Z,101030.69
2018-04-23T15:22:17.004Z,101025.81
2018-04-23T15:24:45.304Z,101019.08
2018-04-23T15:27:14.435Z,101020.50
2018-04-23T15:29:42.742Z,101022.31
2018-04-23T15:32:11.071Z,101023.27
2018-04-23T15:34:39.783Z,101018.31
2018-04-23T15:37:08.088Z,101019.14
2018-04-23T15:39:36.408Z,101021.88
2018-04-23T15:42:05.529Z,101027.64
2018-04-23T15:44:33.880Z,101027.59
2018-04-23T15:47:02.191Z,101028.67
2018-04-23T15:49:30.539Z,101029.06
2018-04-23T15:51:59.613Z,101027.94
2018-04-23T15:54:27.939Z,101029.63
2018-04-23T15:56:56.406Z,101040.97
2018-04-23T15:59:24.724Z,101045.16
2018-04-23T16:01:53.064Z,101048.45
2018-04-23T16:04:21.562Z,101045.97
2018-04-23T16:06:49.914Z,101044.56
2018-04-23T16:09:19.306Z,101050.37
2018-04-23T16:11:47.821Z,101048.77
2018-04-23T16:14:16.134Z,101043.07
2018-04-23T16:16:44.576Z,101047.95
2018-04-23T16:19:13.213Z,101051.69
2018-04-23T16:21:41.791Z,101052.47
2018-04-23T16:24:10.155Z,101054.91
2018-04-23T16:26:39.306Z,101058.16
2018-04-23T16:29:07.851Z,101051.78
2018-04-23T16:31:36.714Z,101052.80
2018-04-23T16:34:05.474Z,101054.92
2018-04-23T16:36:33.810Z,101055.52
2018-04-23T16:39:02.133Z,101058.62
2018-04-23T16:41:30.717Z,101057.63
2018-04-23T16:43:59.031Z,101058.24
2018-04-23T16:46:27.379Z,101063.16
2018-04-23T16:48:55.742Z,101055.75
2018-04-23T16:51:24.842Z,101054.88
2018-04-23T16:53:54.120Z,101062.30
2018-04-23T16:56:22.567Z,101057.29
2018-04-23T16:58:50.891Z,101064.34
2018-04-23T17:01:19.979Z,101059.44
2018-04-23T17:03:48.562Z,101063.50
2018-04-23T17:06:17.880Z,101079.50
2018-04-23T17:08:46.995Z,101074.48
2018-04-23T17:11:15.377Z,101071.66
2018-04-23T17:13:43.724Z,101073.41
2018-04-23T17:16:12.793Z,101081.88
2018-04-23T17:18:41.165Z,101090.09
2018-04-23T17:21:09.588Z,101089.14
2018-04-23T17:23:38.681Z,101094.52
2018-04-23T17:26:08.108Z,101101.57
2018-04-23T17:28:36.447Z,101095.59
2018-04-23T17:31:04.903Z,101098.06
2018-04-23T17:33:33.246Z,101098.23
2018-04-23T17:36:01.564Z,101100.36
2018-04-23T17:38:30.003Z,101108.17
2018-04-23T17:40:58.388Z,101114.19
2018-04-23T17:43:26.707Z,101117.34
2018-04-23T17:45:55.063Z,101122.84
2018-04-23T17:48:23.471Z,101128.45
2018-04-23T17:50:52.641Z,101133.04
2018-04-23T17:53:21.023Z,101139.91
2018-04-23T17:55:49.444Z,101144.81
2018-04-23T17:58:17.765Z,101147.86
2018-04-23T18:00:46.138Z,101154.21
2018-04-23T18:03:14.510Z,101159.61
2018-04-23T18:05:43.744Z,101156.77
2018-04-23T18:08:12.084Z,101164.68
2018-04-23T18:10:41.473Z,101176.62
2018-04-23T18:13:09.987Z,101181.01
2018-04-23T18:15:38.311Z,101178.98
2018-04-23T18:18:06.836Z,101186.20
2018-04-23T18:20:35.927Z,101192.80
2018-04-23T18:23:05.040Z,101193.22
2018-04-23T18:25:33.409Z,101206.45
2018-04-23T18:28:01.826Z,101209.13
2018-04-23T18:30:30.186Z,101211.02
2018-04-23T18:32:58.628Z,101212.02
2018-04-23T18:35:26.969Z,101221.36
2018-04-23T18:37:55.314Z,101219.20
2018-04-23T18:40:23.944Z,101223.19
2018-04-23T18:42:52.285Z,101218.84
2018-04-23T18:45:20.642Z,101223.86
2018-04-23T18:47:49.768Z,101224.43
2018-04-23T18:50:18.104Z,101233.81
2018-04-23T18:52:47.325Z,101240.86
2018-04-23T18:55:16.008Z,101236.48
2018-04-23T18:57:44.975Z,101245.11
2018-04-23T19:00:14.116Z,101236.62
2018-04-23T19:02:42.491Z,101248.16
2018-04-23T19:05:10.877Z,101248.52
2018-04-23T19:07:40.297Z,101260.75
2018-04-23T19:10:08.720Z,101260.81
2018-04-23T19:12:37.187Z,101263.78
2018-04-23T19:15:05.530Z,101262.59
2018-04-23T19:17:34.182Z,101268.98
2018-04-23T19:20:02.922Z,101267.00
2018-04-23T19:22:31.332Z,101272.48
2018-04-23T19:24:59.895Z,101267.33
2018-04-23T19:27:28.288Z,101269.53
2018-04-23T19:29:56.637Z,101270.75
2018-04-23T19:32:25.005Z,101271.22
2018-04-23T19:34:53.372Z,101275.94
2018-04-23T19:37:21.687Z,101273.80
2018-04-23T19:39:51.145Z,101280.05
2018-04-23T19:42:19.501Z,101281.72
2018-04-23T19:44:47.986Z,101286.45
2018-04-23T19:47:17.220Z,101288.98
2018-04-23T19:49:45.551Z,101288.04
2018-04-23T19:52:14.634Z,101298.55
2018-04-23T19:54:42.997Z,101296.52
2018-04-23T19:57:11.339Z,101292.63
2018-04-23T19:59:39.668Z,101299.86
2018-04-23T20:02:08.286Z,101293.98
2018-04-23T20:04:37.388Z,101293.58
2018-04-23T20:07:05.838Z,101302.30
2018-04-23T20:09:34.215Z,101301.64
2018-04-23T20:12:02.538Z,101301.58
2018-04-23T20:14:31.642Z,101300.91
2018-04-23T20:17:00.220Z,101302.52
2018-04-23T20:19:28.905Z,101304.66
2018-04-23T20:21:57.235Z,101300.50
2018-04-23T20:24:26.312Z,101301.49
2018-04-23T20:26:54.630Z,101306.56
2018-04-23T20:29:22.979Z,101296.66
2018-04-23T20:31:51.348Z,101290.64
2018-04-23T20:34:19.663Z,101292.43
2018-04-23T20:36:48.771Z,101291.06
2018-04-23T20:39:17.889Z,101289.12
2018-04-23T20:41:46.290Z,101287.29
2018-04-23T20:44:14.609Z,101298.93
2018-04-23T20:46:44.260Z,101288.99
2018-04-23T20:49:12.576Z,101291.22
2018-04-23T20:51:41.180Z,101292.48
2018-04-23T20:54:09.544Z,101296.72
2018-04-23T20:56:37.950Z,101301.86
2018-04-23T20:59:07.227Z,101302.37
2018-04-23T21:01:35.721Z,101303.31
2018-04-23T21:04:04.064Z,101310.70
2018-04-23T21:06:32.511Z,101312.06
2018-04-23T21:09:01.215Z,101308.00
2018-04-23T21:11:29.527Z,101314.39
2018-04-23T21:13:57.826Z,101310.84
2018-04-23T21:16:26.208Z,101308.20
2018-04-23T21:18:56.352Z,101303.88
2018-04-23T21:21:25.459Z,101303.28
2018-04-23T21:23:53.955Z,101293.52
2018-04-23T21:26:22.276Z,101300.94
2018-04-23T21:28:50.778Z,101306.12
2018-04-23T21:31:19.988Z,101301.76
2018-04-23T21:33:48.666Z,101300.67
2018-04-23T21:36:17.149Z,101298.70
2018-04-23T21:38:46.277Z,101291.12
2018-04-23T21:41:14.591Z,101287.05
2018-04-23T21:43:42.908Z,101289.84
2018-04-23T21:46:11.248Z,101295.00
2018-04-23T21:48:39.624Z,101299.55
2018-04-23T21:51:08.055Z,101299.42
2018-04-23T21:53:36.753Z,101312.66
2018-04-23T21:56:05.099Z,101305.73
2018-04-23T21:58:34.268Z,101313.84
2018-04-23T22:01:02.629Z,101310.72
2018-04-23T22:03:31.025Z,101311.14
2018-04-23T22:05:59.408Z,101301.15
2018-04-23T22:08:27.755Z,101302.17
2018-04-23T22:10:56.185Z,101306.62
2018-04-23T22:13:24.603Z,101303.58
2018-04-23T22:15:53.703Z,101308.19
2018-04-23T22:18:23.066Z,101304.26
2018-04-23T22:20:51.788Z,101308.37
2018-04-23T22:23:20.139Z,101306.11
2018-04-23T22:25:50.428Z,101303.89
2018-04-23T22:28:18.767Z,101302.69
2018-04-23T22:30:47.206Z,101304.41
2018-04-23T22:33:15.731Z,101294.55
2018-04-23T22:35:44.811Z,101294.45
2018-04-23T22:38:13.530Z,101298.63
2018-04-23T22:40:41.849Z,101289.59
2018-04-23T22:43:11.297Z,101294.45
2018-04-23T22:45:39.679Z,101297.84
2018-04-23T22:48:08.054Z,101297.08
2018-04-23T22:50:37.158Z,101296.75
2018-04-23T22:53:05.517Z,101291.98
2018-04-23T22:55:34.869Z,101300.64
2018-04-23T22:58:03.222Z,101303.14
2018-04-23T23:00:31.981Z,101307.20
2018-04-23T23:03:01.052Z,101297.61
2018-04-23T23:05:29.818Z,101302.88
2018-04-23T23:07:58.188Z,101309.09
2018-04-23T23:10:26.522Z,101305.44
2018-04-23T23:12:55.618Z,101299.39
2018-04-23T23:15:24.742Z,101304.14
2018-04-23T23:17:53.074Z,101302.45
2018-04-23T23:20:21.411Z,101305.17
2018-04-23T23:22:49.970Z,101300.08
2018-04-23T23:25:19.159Z,101302.03
2018-04-23T23:27:47.644Z,101300.32
2018-04-23T23:30:16.159Z,101299.20
2018-04-23T23:32:44.471Z,101297.99
2018-04-23T23:35:12.804Z,101300.20
2018-04-23T23:37:41.172Z,101299.23
2018-04-23T23:40:10.263Z,101302.39
2018-04-23T23:42:39.811Z,101300.40
2018-04-23T23:45:08.436Z,101307.50
2018-04-23T23:47:36.795Z,101306.18
2018-04-23T23:50:05.370Z,101295.02
2018-04-23T23:52:33.731Z,101291.66
2018-04-23T23:55:02.174Z,101287.71
2018-04-23T23:57:31.249Z,101286.44
2018-04-23T23:59:59.731Z,101288.05
